sensor_id;sensor_type;location;lat;lon;timestamp;P1;durP1;ratioP1;P2;durP2;ratioP2
16478;SDS011;8350;52.316;10.530;2023-08-24T00:01:02;4.00;;;2.90;;
16478;SDS011;8350;52.316;10.530;2023-08-24T00:03:29;7.38;;;2.88;;
16478;SDS011;8350;52.316;10.530;2023-08-24T00:05:56;3.55;;;2.80;;
16478;SDS011;8350;52.316;10.530;2023-08-24T00:08:23;2.55;;;2.35;;
16478;SDS011;8350;52.316;10.530;2023-08-24T00:10:50;2.92;;;2.55;;
16478;SDS011;8350;52.316;10.530;2023-08-24T00:13:17;4.22;;;3.22;;
16478;SDS011;8350;52.316;10.530;2023-08-24T00:15:44;3.83;;;2.55;;
16478;SDS011;8350;52.316;10.530;2023-08-24T00:18:13;4.30;;;2.58;;
16478;SDS011;8350;52.316;10.530;2023-08-24T00:20:40;3.92;;;2.78;;
16478;SDS011;8350;52.316;10.530;2023-08-24T00:23:07;4.78;;;2.80;;
16478;SDS011;8350;52.316;10.530;2023-08-24T00:25:35;2.67;;;2.47;;
16478;SDS011;8350;52.316;10.530;2023-08-24T00:28:02;4.38;;;2.90;;
16478;SDS011;8350;52.316;10.530;2023-08-24T00:30:30;5.13;;;3.00;;
16478;SDS011;8350;52.316;10.530;2023-08-24T00:32:57;6.43;;;3.10;;
16478;SDS011;8350;52.316;10.530;2023-08-24T00:35:25;3.55;;;2.92;;
16478;SDS011;8350;52.316;10.530;2023-08-24T00:37:52;5.50;;;2.97;;
16478;SDS011;8350;52.316;10.530;2023-08-24T00:40:19;2.53;;;2.33;;
16478;SDS011;8350;52.316;10.530;2023-08-24T00:42:50;2.75;;;2.50;;
16478;SDS011;8350;52.316;10.530;2023-08-24T00:45:17;4.05;;;2.90;;
16478;SDS011;8350;52.316;10.530;2023-08-24T00:47:46;4.40;;;2.80;;
16478;SDS011;8350;52.316;10.530;2023-08-24T00:50:13;3.72;;;2.75;;
16478;SDS011;8350;52.316;10.530;2023-08-24T00:52:44;3.35;;;2.60;;
16478;SDS011;8350;52.316;10.530;2023-08-24T00:55:19;4.05;;;2.53;;
16478;SDS011;8350;52.316;10.530;2023-08-24T00:57:47;3.28;;;2.88;;
16478;SDS011;8350;52.316;10.530;2023-08-24T01:00:16;3.35;;;2.70;;
16478;SDS011;8350;52.316;10.530;2023-08-24T01:02:43;5.07;;;2.90;;
16478;SDS011;8350;52.316;10.530;2023-08-24T01:05:10;5.30;;;3.00;;
16478;SDS011;8350;52.316;10.530;2023-08-24T01:07:37;5.57;;;3.47;;
16478;SDS011;8350;52.316;10.530;2023-08-24T01:10:08;4.03;;;3.63;;
16478;SDS011;8350;52.316;10.530;2023-08-24T01:12:50;7.72;;;4.35;;
16478;SDS011;8350;52.316;10.530;2023-08-24T01:15:29;5.63;;;3.85;;
16478;SDS011;8350;52.316;10.530;2023-08-24T01:18:03;4.97;;;4.00;;
16478;SDS011;8350;52.316;10.530;2023-08-24T01:20:33;5.03;;;4.20;;
16478;SDS011;8350;52.316;10.530;2023-08-24T01:23:04;7.18;;;4.10;;
16478;SDS011;8350;52.316;10.530;2023-08-24T01:25:42;6.50;;;4.22;;
16478;SDS011;8350;52.316;10.530;2023-08-24T01:28:17;5.32;;;4.32;;
16478;SDS011;8350;52.316;10.530;2023-08-24T01:30:49;4.75;;;3.47;;
16478;SDS011;8350;52.316;10.530;2023-08-24T01:33:16;6.97;;;3.78;;
16478;SDS011;8350;52.316;10.530;2023-08-24T01:35:43;4.97;;;3.63;;
16478;SDS011;8350;52.316;10.530;2023-08-24T01:38:10;4.07;;;3.78;;
16478;SDS011;8350;52.316;10.530;2023-08-24T01:40:41;4.50;;;3.60;;
16478;SDS011;8350;52.316;10.530;2023-08-24T01:43:14;6.38;;;3.72;;
16478;SDS011;8350;52.316;10.530;2023-08-24T01:45:44;4.22;;;3.45;;
16478;SDS011;8350;52.316;10.530;2023-08-24T01:48:12;3.83;;;3.53;;
16478;SDS011;8350;52.316;10.530;2023-08-24T01:50:40;4.75;;;3.53;;
16478;SDS011;8350;52.316;10.530;2023-08-24T01:53:17;3.70;;;3.30;;
16478;SDS011;8350;52.316;10.530;2023-08-24T01:55:44;4.82;;;3.53;;
16478;SDS011;8350;52.316;10.530;2023-08-24T01:58:11;5.05;;;3.38;;
16478;SDS011;8350;52.316;10.530;2023-08-24T02:00:38;3.55;;;3.25;;
16478;SDS011;8350;52.316;10.530;2023-08-24T02:03:07;3.55;;;3.20;;
16478;SDS011;8350;52.316;10.530;2023-08-24T02:05:33;5.65;;;3.38;;
16478;SDS011;8350;52.316;10.530;2023-08-24T02:08:00;7.28;;;3.80;;
16478;SDS011;8350;52.316;10.530;2023-08-24T02:10:27;5.90;;;3.60;;
16478;SDS011;8350;52.316;10.530;2023-08-24T02:12:54;3.55;;;3.25;;
16478;SDS011;8350;52.316;10.530;2023-08-24T02:15:27;4.25;;;3.85;;
16478;SDS011;8350;52.316;10.530;2023-08-24T02:17:54;4.22;;;3.50;;
16478;SDS011;8350;52.316;10.530;2023-08-24T02:20:23;6.10;;;4.60;;
16478;SDS011;8350;52.316;10.530;2023-08-24T02:22:50;5.40;;;3.65;;
16478;SDS011;8350;52.316;10.530;2023-08-24T02:25:17;3.58;;;3.20;;
16478;SDS011;8350;52.316;10.530;2023-08-24T02:27:44;4.72;;;3.60;;
16478;SDS011;8350;52.316;10.530;2023-08-24T02:30:11;6.82;;;3.42;;
16478;SDS011;8350;52.316;10.530;2023-08-24T02:32:39;4.78;;;3.58;;
16478;SDS011;8350;52.316;10.530;2023-08-24T02:35:08;4.05;;;3.75;;
16478;SDS011;8350;52.316;10.530;2023-08-24T02:37:36;6.85;;;4.28;;
16478;SDS011;8350;52.316;10.530;2023-08-24T02:40:04;5.88;;;3.72;;
16478;SDS011;8350;52.316;10.530;2023-08-24T02:42:34;4.72;;;4.13;;
16478;SDS011;8350;52.316;10.530;2023-08-24T02:45:01;4.35;;;3.95;;
16478;SDS011;8350;52.316;10.530;2023-08-24T02:47:29;6.38;;;3.25;;
16478;SDS011;8350;52.316;10.530;2023-08-24T02:49:56;6.50;;;3.53;;
16478;SDS011;8350;52.316;10.530;2023-08-24T02:52:23;3.85;;;3.35;;
16478;SDS011;8350;52.316;10.530;2023-08-24T02:54:51;3.90;;;3.60;;
16478;SDS011;8350;52.316;10.530;2023-08-24T02:57:18;4.38;;;3.50;;
16478;SDS011;8350;52.316;10.530;2023-08-24T02:59:45;5.05;;;4.28;;
16478;SDS011;8350;52.316;10.530;2023-08-24T03:02:12;4.45;;;3.90;;
16478;SDS011;8350;52.316;10.530;2023-08-24T03:04:38;4.53;;;3.97;;
16478;SDS011;8350;52.316;10.530;2023-08-24T03:07:05;10.65;;;4.38;;
16478;SDS011;8350;52.316;10.530;2023-08-24T03:09:35;5.95;;;3.90;;
16478;SDS011;8350;52.316;10.530;2023-08-24T03:12:04;4.47;;;3.80;;
16478;SDS011;8350;52.316;10.530;2023-08-24T03:14:31;4.78;;;4.38;;
16478;SDS011;8350;52.316;10.530;2023-08-24T03:16:58;4.55;;;3.88;;
16478;SDS011;8350;52.316;10.530;2023-08-24T03:19:25;6.28;;;4.20;;
16478;SDS011;8350;52.316;10.530;2023-08-24T03:21:51;4.75;;;3.83;;
16478;SDS011;8350;52.316;10.530;2023-08-24T03:24:18;5.75;;;3.90;;
16478;SDS011;8350;52.316;10.530;2023-08-24T03:26:45;4.78;;;4.03;;
16478;SDS011;8350;52.316;10.530;2023-08-24T03:29:13;3.90;;;3.60;;
16478;SDS011;8350;52.316;10.530;2023-08-24T03:31:40;5.93;;;4.80;;
16478;SDS011;8350;52.316;10.530;2023-08-24T03:34:07;5.15;;;4.53;;
16478;SDS011;8350;52.316;10.530;2023-08-24T03:36:34;4.47;;;4.07;;
16478;SDS011;8350;52.316;10.530;2023-08-24T03:39:03;4.75;;;3.90;;
16478;SDS011;8350;52.316;10.530;2023-08-24T03:41:30;6.13;;;3.83;;
16478;SDS011;8350;52.316;10.530;2023-08-24T03:43:57;5.43;;;4.28;;
16478;SDS011;8350;52.316;10.530;2023-08-24T03:46:25;5.63;;;4.00;;
16478;SDS011;8350;52.316;10.530;2023-08-24T03:51:52;4.43;;;4.00;;
16478;SDS011;8350;52.316;10.530;2023-08-24T03:54:19;4.13;;;3.63;;
16478;SDS011;8350;52.316;10.530;2023-08-24T03:56:46;6.10;;;5.07;;
16478;SDS011;8350;52.316;10.530;2023-08-24T03:59:13;5.57;;;3.65;;
16478;SDS011;8350;52.316;10.530;2023-08-24T04:01:45;4.90;;;4.43;;
16478;SDS011;8350;52.316;10.530;2023-08-24T04:04:12;5.82;;;4.53;;
16478;SDS011;8350;52.316;10.530;2023-08-24T04:06:39;5.82;;;4.40;;
16478;SDS011;8350;52.316;10.530;2023-08-24T04:09:05;7.28;;;3.95;;
16478;SDS011;8350;52.316;10.530;2023-08-24T04:11:33;6.13;;;4.63;;
16478;SDS011;8350;52.316;10.530;2023-08-24T04:13:59;4.43;;;4.03;;
16478;SDS011;8350;52.316;10.530;2023-08-24T04:16:27;8.90;;;4.32;;
16478;SDS011;8350;52.316;10.530;2023-08-24T04:18:56;4.72;;;4.03;;
16478;SDS011;8350;52.316;10.530;2023-08-24T04:21:23;7.88;;;5.28;;
16478;SDS011;8350;52.316;10.530;2023-08-24T04:23:50;5.72;;;4.63;;
16478;SDS011;8350;52.316;10.530;2023-08-24T04:26:17;6.25;;;4.90;;
16478;SDS011;8350;52.316;10.530;2023-08-24T04:28:45;6.80;;;5.00;;
16478;SDS011;8350;52.316;10.530;2023-08-24T04:31:12;6.53;;;4.55;;
16478;SDS011;8350;52.316;10.530;2023-08-24T04:33:39;6.97;;;4.63;;
16478;SDS011;8350;52.316;10.530;2023-08-24T04:36:07;4.82;;;4.30;;
16478;SDS011;8350;52.316;10.530;2023-08-24T04:38:33;4.60;;;4.10;;
16478;SDS011;8350;52.316;10.530;2023-08-24T04:41:00;5.75;;;5.13;;
16478;SDS011;8350;52.316;10.530;2023-08-24T04:43:28;8.13;;;7.03;;
16478;SDS011;8350;52.316;10.530;2023-08-24T04:45:55;6.68;;;5.07;;
16478;SDS011;8350;52.316;10.530;2023-08-24T04:48:22;5.43;;;5.00;;
16478;SDS011;8350;52.316;10.530;2023-08-24T04:50:57;5.40;;;4.93;;
16478;SDS011;8350;52.316;10.530;2023-08-24T04:53:26;5.40;;;4.90;;
16478;SDS011;8350;52.316;10.530;2023-08-24T04:55:53;5.78;;;4.88;;
16478;SDS011;8350;52.316;10.530;2023-08-24T04:58:23;4.97;;;4.18;;
16478;SDS011;8350;52.316;10.530;2023-08-24T05:00:51;4.32;;;3.90;;
16478;SDS011;8350;52.316;10.530;2023-08-24T05:03:18;4.88;;;3.75;;
16478;SDS011;8350;52.316;10.530;2023-08-24T05:05:46;4.47;;;3.67;;
16478;SDS011;8350;52.316;10.530;2023-08-24T05:08:13;4.13;;;3.45;;
16478;SDS011;8350;52.316;10.530;2023-08-24T05:10:43;5.50;;;3.65;;
16478;SDS011;8350;52.316;10.530;2023-08-24T05:13:10;7.03;;;3.78;;
16478;SDS011;8350;52.316;10.530;2023-08-24T05:15:39;5.32;;;3.20;;
16478;SDS011;8350;52.316;10.530;2023-08-24T05:18:06;5.82;;;4.32;;
16478;SDS011;8350;52.316;10.530;2023-08-24T05:20:38;5.40;;;3.55;;
16478;SDS011;8350;52.316;10.530;2023-08-24T05:23:05;4.25;;;3.50;;
16478;SDS011;8350;52.316;10.530;2023-08-24T05:25:32;4.65;;;3.75;;
16478;SDS011;8350;52.316;10.530;2023-08-24T05:28:00;6.00;;;3.03;;
16478;SDS011;8350;52.316;10.530;2023-08-24T05:30:28;4.32;;;3.17;;
16478;SDS011;8350;52.316;10.530;2023-08-24T05:32:55;4.85;;;3.15;;
16478;SDS011;8350;52.316;10.530;2023-08-24T05:35:23;4.95;;;3.80;;
16478;SDS011;8350;52.316;10.530;2023-08-24T05:37:54;3.63;;;3.10;;
16478;SDS011;8350;52.316;10.530;2023-08-24T05:40:21;4.10;;;3.58;;
16478;SDS011;8350;52.316;10.530;2023-08-24T05:42:48;5.35;;;3.97;;
16478;SDS011;8350;52.316;10.530;2023-08-24T05:45:17;5.50;;;3.58;;
16478;SDS011;8350;52.316;10.530;2023-08-24T05:47:44;5.28;;;3.83;;
16478;SDS011;8350;52.316;10.530;2023-08-24T05:50:12;4.38;;;3.97;;
16478;SDS011;8350;52.316;10.530;2023-08-24T05:52:39;6.97;;;4.32;;
16478;SDS011;8350;52.316;10.530;2023-08-24T05:55:06;7.35;;;3.80;;
16478;SDS011;8350;52.316;10.530;2023-08-24T05:57:34;3.83;;;3.45;;
16478;SDS011;8350;52.316;10.530;2023-08-24T06:00:00;4.60;;;3.60;;
16478;SDS011;8350;52.316;10.530;2023-08-24T06:02:30;6.50;;;3.97;;
16478;SDS011;8350;52.316;10.530;2023-08-24T06:04:57;4.40;;;3.88;;
16478;SDS011;8350;52.316;10.530;2023-08-24T06:07:26;7.82;;;4.10;;
16478;SDS011;8350;52.316;10.530;2023-08-24T06:09:53;4.63;;;4.10;;
16478;SDS011;8350;52.316;10.530;2023-08-24T06:12:20;6.47;;;4.88;;
16478;SDS011;8350;52.316;10.530;2023-08-24T06:14:47;5.15;;;4.55;;
16478;SDS011;8350;52.316;10.530;2023-08-24T06:17:21;5.43;;;4.20;;
16478;SDS011;8350;52.316;10.530;2023-08-24T06:19:49;4.07;;;3.72;;
16478;SDS011;8350;52.316;10.530;2023-08-24T06:22:16;4.78;;;4.30;;
16478;SDS011;8350;52.316;10.530;2023-08-24T06:24:43;4.82;;;4.38;;
16478;SDS011;8350;52.316;10.530;2023-08-24T06:27:17;5.07;;;4.57;;
16478;SDS011;8350;52.316;10.530;2023-08-24T06:29:44;4.68;;;4.07;;
16478;SDS011;8350;52.316;10.530;2023-08-24T06:32:11;7.40;;;4.88;;
16478;SDS011;8350;52.316;10.530;2023-08-24T06:34:42;5.57;;;4.57;;
16478;SDS011;8350;52.316;10.530;2023-08-24T06:37:11;5.53;;;4.80;;
16478;SDS011;8350;52.316;10.530;2023-08-24T06:39:38;4.93;;;4.30;;
16478;SDS011;8350;52.316;10.530;2023-08-24T06:42:12;5.90;;;4.80;;
16478;SDS011;8350;52.316;10.530;2023-08-24T06:44:46;6.18;;;4.40;;
16478;SDS011;8350;52.316;10.530;2023-08-24T06:47:15;5.43;;;4.90;;
16478;SDS011;8350;52.316;10.530;2023-08-24T06:49:43;7.72;;;5.78;;
16478;SDS011;8350;52.316;10.530;2023-08-24T06:52:11;6.00;;;5.25;;
16478;SDS011;8350;52.316;10.530;2023-08-24T06:54:40;5.90;;;5.13;;
16478;SDS011;8350;52.316;10.530;2023-08-24T06:57:10;6.03;;;4.82;;
16478;SDS011;8350;52.316;10.530;2023-08-24T06:59:39;4.82;;;4.38;;
16478;SDS011;8350;52.316;10.530;2023-08-24T07:02:06;5.35;;;4.95;;
16478;SDS011;8350;52.316;10.530;2023-08-24T07:04:32;6.72;;;5.28;;
16478;SDS011;8350;52.316;10.530;2023-08-24T07:06:59;7.47;;;5.20;;
16478;SDS011;8350;52.316;10.530;2023-08-24T07:09:32;8.38;;;5.50;;
16478;SDS011;8350;52.316;10.530;2023-08-24T07:12:01;7.88;;;4.90;;
16478;SDS011;8350;52.316;10.530;2023-08-24T07:14:31;6.32;;;5.72;;
16478;SDS011;8350;52.316;10.530;2023-08-24T07:17:01;8.15;;;5.20;;
16478;SDS011;8350;52.316;10.530;2023-08-24T07:19:28;7.30;;;4.78;;
16478;SDS011;8350;52.316;10.530;2023-08-24T07:21:58;6.00;;;5.35;;
16478;SDS011;8350;52.316;10.530;2023-08-24T07:24:26;6.53;;;5.45;;
16478;SDS011;8350;52.316;10.530;2023-08-24T07:26:56;6.22;;;5.63;;
16478;SDS011;8350;52.316;10.530;2023-08-24T07:29:24;6.97;;;5.80;;
16478;SDS011;8350;52.316;10.530;2023-08-24T07:31:51;8.93;;;5.80;;
16478;SDS011;8350;52.316;10.530;2023-08-24T07:34:18;10.23;;;6.32;;
16478;SDS011;8350;52.316;10.530;2023-08-24T07:36:47;9.60;;;6.03;;
16478;SDS011;8350;52.316;10.530;2023-08-24T07:39:14;8.32;;;6.28;;
16478;SDS011;8350;52.316;10.530;2023-08-24T07:41:45;10.10;;;6.93;;
16478;SDS011;8350;52.316;10.530;2023-08-24T07:44:13;6.88;;;6.10;;
16478;SDS011;8350;52.316;10.530;2023-08-24T07:46:40;8.60;;;5.75;;
16478;SDS011;8350;52.316;10.530;2023-08-24T07:49:07;9.35;;;5.97;;
16478;SDS011;8350;52.316;10.530;2023-08-24T07:51:34;9.00;;;6.53;;
16478;SDS011;8350;52.316;10.530;2023-08-24T07:54:02;12.93;;;7.53;;
16478;SDS011;8350;52.316;10.530;2023-08-24T07:56:32;12.77;;;6.93;;
16478;SDS011;8350;52.316;10.530;2023-08-24T07:59:01;10.82;;;7.55;;
16478;SDS011;8350;52.316;10.530;2023-08-24T08:01:29;7.97;;;6.32;;
16478;SDS011;8350;52.316;10.530;2023-08-24T08:03:58;12.05;;;6.78;;
16478;SDS011;8350;52.316;10.530;2023-08-24T08:06:26;11.55;;;6.78;;
16478;SDS011;8350;52.316;10.530;2023-08-24T08:08:53;10.05;;;6.78;;
16478;SDS011;8350;52.316;10.530;2023-08-24T08:11:20;6.90;;;6.30;;
16478;SDS011;8350;52.316;10.530;2023-08-24T08:13:47;9.80;;;6.32;;
16478;SDS011;8350;52.316;10.530;2023-08-24T08:16:14;8.20;;;5.82;;
16478;SDS011;8350;52.316;10.530;2023-08-24T08:18:42;8.68;;;6.30;;
16478;SDS011;8350;52.316;10.530;2023-08-24T08:21:09;7.82;;;6.43;;
16478;SDS011;8350;52.316;10.530;2023-08-24T08:23:37;9.93;;;6.32;;
16478;SDS011;8350;52.316;10.530;2023-08-24T08:26:04;9.68;;;5.72;;
16478;SDS011;8350;52.316;10.530;2023-08-24T08:28:31;6.75;;;5.53;;
16478;SDS011;8350;52.316;10.530;2023-08-24T08:30:59;6.72;;;5.13;;
16478;SDS011;8350;52.316;10.530;2023-08-24T08:33:27;10.48;;;4.88;;
16478;SDS011;8350;52.316;10.530;2023-08-24T08:35:55;6.30;;;4.50;;
16478;SDS011;8350;52.316;10.530;2023-08-24T08:38:22;5.82;;;3.92;;
16478;SDS011;8350;52.316;10.530;2023-08-24T08:40:52;6.50;;;4.10;;
16478;SDS011;8350;52.316;10.530;2023-08-24T08:43:22;6.35;;;4.50;;
16478;SDS011;8350;52.316;10.530;2023-08-24T08:45:49;10.88;;;4.38;;
16478;SDS011;8350;52.316;10.530;2023-08-24T08:48:17;5.20;;;3.92;;
16478;SDS011;8350;52.316;10.530;2023-08-24T08:50:47;7.60;;;4.25;;
16478;SDS011;8350;52.316;10.530;2023-08-24T08:53:16;6.55;;;4.50;;
16478;SDS011;8350;52.316;10.530;2023-08-24T08:55:44;6.82;;;5.57;;
16478;SDS011;8350;52.316;10.530;2023-08-24T08:58:11;9.27;;;4.82;;
16478;SDS011;8350;52.316;10.530;2023-08-24T09:00:39;6.18;;;4.93;;
16478;SDS011;8350;52.316;10.530;2023-08-24T09:03:07;6.00;;;5.38;;
16478;SDS011;8350;52.316;10.530;2023-08-24T09:05:35;7.47;;;5.15;;
16478;SDS011;8350;52.316;10.530;2023-08-24T09:08:04;9.80;;;5.05;;
16478;SDS011;8350;52.316;10.530;2023-08-24T09:10:33;8.68;;;5.13;;
16478;SDS011;8350;52.316;10.530;2023-08-24T09:13:00;6.43;;;5.55;;
16478;SDS011;8350;52.316;10.530;2023-08-24T09:15:27;7.60;;;4.68;;
16478;SDS011;8350;52.316;10.530;2023-08-24T09:18:00;8.68;;;5.22;;
16478;SDS011;8350;52.316;10.530;2023-08-24T09:20:27;5.78;;;4.63;;
16478;SDS011;8350;52.316;10.530;2023-08-24T09:22:55;8.57;;;4.95;;
16478;SDS011;8350;52.316;10.530;2023-08-24T09:25:22;7.60;;;5.20;;
16478;SDS011;8350;52.316;10.530;2023-08-24T09:27:57;6.22;;;4.65;;
16478;SDS011;8350;52.316;10.530;2023-08-24T09:30:29;9.23;;;4.50;;
16478;SDS011;8350;52.316;10.530;2023-08-24T09:33:00;6.97;;;4.95;;
16478;SDS011;8350;52.316;10.530;2023-08-24T09:35:28;5.05;;;4.55;;
16478;SDS011;8350;52.316;10.530;2023-08-24T09:37:55;6.10;;;4.70;;
16478;SDS011;8350;52.316;10.530;2023-08-24T09:40:24;7.25;;;4.82;;
16478;SDS011;8350;52.316;10.530;2023-08-24T09:42:51;5.68;;;4.50;;
16478;SDS011;8350;52.316;10.530;2023-08-24T09:45:20;5.60;;;4.53;;
16478;SDS011;8350;52.316;10.530;2023-08-24T09:47:49;8.65;;;4.70;;
16478;SDS011;8350;52.316;10.530;2023-08-24T09:50:17;5.20;;;4.70;;
16478;SDS011;8350;52.316;10.530;2023-08-24T09:52:45;6.55;;;4.20;;
16478;SDS011;8350;52.316;10.530;2023-08-24T09:55:14;4.97;;;4.10;;
16478;SDS011;8350;52.316;10.530;2023-08-24T09:57:44;7.32;;;4.90;;
16478;SDS011;8350;52.316;10.530;2023-08-24T10:00:13;8.13;;;5.07;;
16478;SDS011;8350;52.316;10.530;2023-08-24T10:02:49;5.40;;;4.80;;
16478;SDS011;8350;52.316;10.530;2023-08-24T10:05:21;4.95;;;4.38;;
16478;SDS011;8350;52.316;10.530;2023-08-24T10:07:53;4.78;;;4.30;;
16478;SDS011;8350;52.316;10.530;2023-08-24T10:10:21;6.93;;;4.50;;
16478;SDS011;8350;52.316;10.530;2023-08-24T10:12:53;5.65;;;4.60;;
16478;SDS011;8350;52.316;10.530;2023-08-24T10:15:26;7.47;;;4.10;;
16478;SDS011;8350;52.316;10.530;2023-08-24T10:17:58;8.55;;;4.30;;
16478;SDS011;8350;52.316;10.530;2023-08-24T10:20:27;5.50;;;4.50;;
16478;SDS011;8350;52.316;10.530;2023-08-24T10:22:54;18.75;;;5.05;;
16478;SDS011;8350;52.316;10.530;2023-08-24T10:25:23;5.00;;;4.03;;
16478;SDS011;8350;52.316;10.530;2023-08-24T10:27:50;5.88;;;4.10;;
16478;SDS011;8350;52.316;10.530;2023-08-24T10:30:19;4.95;;;3.85;;
16478;SDS011;8350;52.316;10.530;2023-08-24T10:32:51;7.57;;;4.40;;
16478;SDS011;8350;52.316;10.530;2023-08-24T10:35:20;5.28;;;4.50;;
16478;SDS011;8350;52.316;10.530;2023-08-24T10:37:51;5.65;;;4.10;;
16478;SDS011;8350;52.316;10.530;2023-08-24T10:40:30;6.10;;;4.15;;
16478;SDS011;8350;52.316;10.530;2023-08-24T10:42:58;5.25;;;3.75;;
16478;SDS011;8350;52.316;10.530;2023-08-24T10:45:28;4.43;;;3.75;;
16478;SDS011;8350;52.316;10.530;2023-08-24T10:48:22;5.68;;;3.58;;
16478;SDS011;8350;52.316;10.530;2023-08-24T10:53:45;4.55;;;3.30;;
16478;SDS011;8350;52.316;10.530;2023-08-24T10:56:14;5.13;;;3.45;;
16478;SDS011;8350;52.316;10.530;2023-08-24T10:58:42;4.18;;;3.75;;
16478;SDS011;8350;52.316;10.530;2023-08-24T11:01:16;4.32;;;3.65;;
16478;SDS011;8350;52.316;10.530;2023-08-24T11:03:50;6.05;;;4.13;;
16478;SDS011;8350;52.316;10.530;2023-08-24T11:06:22;4.55;;;3.30;;
16478;SDS011;8350;52.316;10.530;2023-08-24T11:09:04;3.60;;;3.10;;
16478;SDS011;8350;52.316;10.530;2023-08-24T11:11:35;4.63;;;2.95;;
16478;SDS011;8350;52.316;10.530;2023-08-24T11:14:14;4.53;;;3.15;;
16478;SDS011;8350;52.316;10.530;2023-08-24T11:16:45;4.43;;;3.00;;
16478;SDS011;8350;52.316;10.530;2023-08-24T11:19:13;3.00;;;2.70;;
16478;SDS011;8350;52.316;10.530;2023-08-24T11:21:42;5.30;;;2.90;;
16478;SDS011;8350;52.316;10.530;2023-08-24T11:24:12;4.18;;;2.80;;
16478;SDS011;8350;52.316;10.530;2023-08-24T11:26:49;4.20;;;2.70;;
16478;SDS011;8350;52.316;10.530;2023-08-24T11:29:17;3.35;;;3.03;;
16478;SDS011;8350;52.316;10.530;2023-08-24T11:31:44;4.15;;;2.90;;
16478;SDS011;8350;52.316;10.530;2023-08-24T11:34:14;5.93;;;2.97;;
16478;SDS011;8350;52.316;10.530;2023-08-24T11:36:43;7.82;;;2.75;;
16478;SDS011;8350;52.316;10.530;2023-08-24T11:39:16;3.00;;;2.65;;
16478;SDS011;8350;52.316;10.530;2023-08-24T11:41:44;4.28;;;2.38;;
16478;SDS011;8350;52.316;10.530;2023-08-24T11:44:13;2.50;;;2.30;;
16478;SDS011;8350;52.316;10.530;2023-08-24T11:46:40;2.85;;;2.22;;
16478;SDS011;8350;52.316;10.530;2023-08-24T11:49:07;3.03;;;2.50;;
16478;SDS011;8350;52.316;10.530;2023-08-24T11:51:36;2.90;;;2.65;;
16478;SDS011;8350;52.316;10.530;2023-08-24T11:54:06;6.20;;;2.55;;
16478;SDS011;8350;52.316;10.530;2023-08-24T11:56:37;4.32;;;2.35;;
16478;SDS011;8350;52.316;10.530;2023-08-24T11:59:13;4.03;;;2.58;;
16478;SDS011;8350;52.316;10.530;2023-08-24T12:01:41;3.45;;;2.40;;
16478;SDS011;8350;52.316;10.530;2023-08-24T12:04:09;2.13;;;1.98;;
16478;SDS011;8350;52.316;10.530;2023-08-24T12:06:37;5.15;;;2.50;;
16478;SDS011;8350;52.316;10.530;2023-08-24T12:09:06;2.97;;;2.08;;
16478;SDS011;8350;52.316;10.530;2023-08-24T12:11:36;2.50;;;2.28;;
16478;SDS011;8350;52.316;10.530;2023-08-24T12:14:03;2.47;;;2.20;;
16478;SDS011;8350;52.316;10.530;2023-08-24T12:16:32;3.40;;;2.08;;
16478;SDS011;8350;52.316;10.530;2023-08-24T12:18:59;3.17;;;2.30;;
16478;SDS011;8350;52.316;10.530;2023-08-24T12:21:33;3.35;;;2.20;;
16478;SDS011;8350;52.316;10.530;2023-08-24T12:24:00;1.90;;;1.80;;
16478;SDS011;8350;52.316;10.530;2023-08-24T12:26:32;2.35;;;1.95;;
16478;SDS011;8350;52.316;10.530;2023-08-24T12:29:04;3.17;;;2.03;;
16478;SDS011;8350;52.316;10.530;2023-08-24T12:31:34;2.60;;;2.20;;
16478;SDS011;8350;52.316;10.530;2023-08-24T12:34:03;3.90;;;2.08;;
16478;SDS011;8350;52.316;10.530;2023-08-24T12:36:31;3.50;;;2.00;;
16478;SDS011;8350;52.316;10.530;2023-08-24T12:39:04;2.63;;;2.08;;
16478;SDS011;8350;52.316;10.530;2023-08-24T12:41:34;2.30;;;2.10;;
16478;SDS011;8350;52.316;10.530;2023-08-24T12:44:01;2.60;;;2.25;;
16478;SDS011;8350;52.316;10.530;2023-08-24T12:49:28;2.97;;;2.33;;
16478;SDS011;8350;52.316;10.530;2023-08-24T12:51:55;3.17;;;2.40;;
16478;SDS011;8350;52.316;10.530;2023-08-24T12:54:22;5.70;;;2.50;;
16478;SDS011;8350;52.316;10.530;2023-08-24T12:56:51;1.98;;;1.77;;
16478;SDS011;8350;52.316;10.530;2023-08-24T12:59:18;3.20;;;2.30;;
16478;SDS011;8350;52.316;10.530;2023-08-24T13:01:45;6.97;;;2.67;;
16478;SDS011;8350;52.316;10.530;2023-08-24T13:04:12;2.83;;;2.40;;
16478;SDS011;8350;52.316;10.530;2023-08-24T13:06:39;2.92;;;2.67;;
16478;SDS011;8350;52.316;10.530;2023-08-24T13:09:06;3.90;;;2.40;;
16478;SDS011;8350;52.316;10.530;2023-08-24T13:11:33;2.70;;;2.30;;
16478;SDS011;8350;52.316;10.530;2023-08-24T13:14:02;5.78;;;2.78;;
16478;SDS011;8350;52.316;10.530;2023-08-24T13:16:28;4.53;;;2.42;;
16478;SDS011;8350;52.316;10.530;2023-08-24T13:18:56;3.10;;;2.80;;
16478;SDS011;8350;52.316;10.530;2023-08-24T13:21:24;3.33;;;2.50;;
16478;SDS011;8350;52.316;10.530;2023-08-24T13:23:51;2.60;;;2.28;;
16478;SDS011;8350;52.316;10.530;2023-08-24T13:26:18;3.90;;;2.50;;
16478;SDS011;8350;52.316;10.530;2023-08-24T13:28:45;3.00;;;2.40;;
16478;SDS011;8350;52.316;10.530;2023-08-24T13:31:14;3.72;;;2.13;;
16478;SDS011;8350;52.316;10.530;2023-08-24T13:33:41;2.55;;;1.90;;
16478;SDS011;8350;52.316;10.530;2023-08-24T13:36:08;3.67;;;2.28;;
16478;SDS011;8350;52.316;10.530;2023-08-24T13:38:35;4.47;;;2.22;;
16478;SDS011;8350;52.316;10.530;2023-08-24T13:41:02;4.82;;;2.10;;
16478;SDS011;8350;52.316;10.530;2023-08-24T13:43:31;3.58;;;2.15;;
16478;SDS011;8350;52.316;10.530;2023-08-24T13:45:58;2.92;;;2.05;;
16478;SDS011;8350;52.316;10.530;2023-08-24T13:48:26;4.43;;;2.65;;
16478;SDS011;8350;52.316;10.530;2023-08-24T13:51:01;2.95;;;2.20;;
16478;SDS011;8350;52.316;10.530;2023-08-24T13:53:28;3.22;;;2.00;;
16478;SDS011;8350;52.316;10.530;2023-08-24T13:55:55;6.88;;;2.08;;
16478;SDS011;8350;52.316;10.530;2023-08-24T13:58:22;2.72;;;1.88;;
16478;SDS011;8350;52.316;10.530;2023-08-24T14:00:54;2.22;;;2.00;;
16478;SDS011;8350;52.316;10.530;2023-08-24T14:03:21;1.95;;;1.83;;
16478;SDS011;8350;52.316;10.530;2023-08-24T14:05:50;4.05;;;1.85;;
16478;SDS011;8350;52.316;10.530;2023-08-24T14:08:21;3.92;;;2.20;;
16478;SDS011;8350;52.316;10.530;2023-08-24T14:10:48;4.00;;;2.00;;
16478;SDS011;8350;52.316;10.530;2023-08-24T14:13:15;3.47;;;1.85;;
16478;SDS011;8350;52.316;10.530;2023-08-24T14:15:43;1.98;;;1.77;;
16478;SDS011;8350;52.316;10.530;2023-08-24T14:18:10;3.67;;;1.60;;
16478;SDS011;8350;52.316;10.530;2023-08-24T14:20:38;2.70;;;1.83;;
16478;SDS011;8350;52.316;10.530;2023-08-24T14:23:06;1.77;;;1.55;;
16478;SDS011;8350;52.316;10.530;2023-08-24T14:25:33;2.80;;;2.03;;
16478;SDS011;8350;52.316;10.530;2023-08-24T14:28:00;1.83;;;1.55;;
16478;SDS011;8350;52.316;10.530;2023-08-24T14:30:27;3.88;;;1.75;;
16478;SDS011;8350;52.316;10.530;2023-08-24T14:36:17;3.55;;;1.80;;
16478;SDS011;8350;52.316;10.530;2023-08-24T14:38:46;2.55;;;1.75;;
16478;SDS011;8350;52.316;10.530;2023-08-24T14:41:13;2.75;;;1.80;;
16478;SDS011;8350;52.316;10.530;2023-08-24T14:43:42;3.55;;;1.83;;
16478;SDS011;8350;52.316;10.530;2023-08-24T14:46:11;2.85;;;1.55;;
16478;SDS011;8350;52.316;10.530;2023-08-24T14:48:39;4.10;;;1.92;;
16478;SDS011;8350;52.316;10.530;2023-08-24T14:51:07;3.75;;;2.05;;
16478;SDS011;8350;52.316;10.530;2023-08-24T14:53:33;4.95;;;2.00;;
16478;SDS011;8350;52.316;10.530;2023-08-24T14:56:02;3.78;;;2.05;;
16478;SDS011;8350;52.316;10.530;2023-08-24T14:58:31;2.72;;;1.80;;
16478;SDS011;8350;52.316;10.530;2023-08-24T15:00:58;2.47;;;1.77;;
16478;SDS011;8350;52.316;10.530;2023-08-24T15:03:25;4.30;;;1.95;;
16478;SDS011;8350;52.316;10.530;2023-08-24T15:08:38;2.35;;;1.60;;
16478;SDS011;8350;52.316;10.530;2023-08-24T15:11:07;3.55;;;2.30;;